sensor_id;sensor_type;location;lat;lon;timestamp;P1;durP1;ratioP1;P2;durP2;ratioP2
22883;SDS011;13386;24.786;110.488;2023-06-26T00:01:32;10.95;;;3.67;;
22883;SDS011;13386;24.786;110.488;2023-06-26T00:04:02;11.38;;;4.63;;
22883;SDS011;13386;24.786;110.488;2023-06-26T00:06:33;12.43;;;4.40;;
22883;SDS011;13386;24.786;110.488;2023-06-26T00:09:05;7.30;;;4.00;;
22883;SDS011;13386;24.786;110.488;2023-06-26T00:11:37;7.65;;;3.00;;
22883;SDS011;13386;24.786;110.488;2023-06-26T00:14:07;8.18;;;2.75;;
22883;SDS011;13386;24.786;110.488;2023-06-26T00:16:37;6.97;;;3.00;;
22883;SDS011;13386;24.786;110.488;2023-06-26T00:19:09;5.47;;;3.25;;
22883;SDS011;13386;24.786;110.488;2023-06-26T00:21:39;8.13;;;3.63;;
22883;SDS011;13386;24.786;110.488;2023-06-26T00:24:13;8.18;;;4.35;;
22883;SDS011;13386;24.786;110.488;2023-06-26T00:26:46;6.22;;;3.40;;
22883;SDS011;13386;24.786;110.488;2023-06-26T00:29:17;9.32;;;4.38;;
22883;SDS011;13386;24.786;110.488;2023-06-26T00:31:47;8.82;;;3.90;;
22883;SDS011;13386;24.786;110.488;2023-06-26T00:34:17;9.75;;;3.60;;
22883;SDS011;13386;24.786;110.488;2023-06-26T00:36:47;6.53;;;3.13;;
22883;SDS011;13386;24.786;110.488;2023-06-26T00:39:17;9.00;;;3.20;;
22883;SDS011;13386;24.786;110.488;2023-06-26T00:41:49;10.40;;;3.33;;
22883;SDS011;13386;24.786;110.488;2023-06-26T00:44:20;7.60;;;3.38;;
22883;SDS011;13386;24.786;110.488;2023-06-26T00:46:51;5.72;;;3.05;;
22883;SDS011;13386;24.786;110.488;2023-06-26T00:49:21;6.25;;;3.20;;
22883;SDS011;13386;24.786;110.488;2023-06-26T00:51:51;5.93;;;3.38;;
22883;SDS011;13386;24.786;110.488;2023-06-26T00:54:21;6.97;;;3.40;;
22883;SDS011;13386;24.786;110.488;2023-06-26T00:56:53;11.05;;;3.15;;
22883;SDS011;13386;24.786;110.488;2023-06-26T00:59:23;8.90;;;3.25;;
22883;SDS011;13386;24.786;110.488;2023-06-26T01:01:55;6.40;;;3.17;;
22883;SDS011;13386;24.786;110.488;2023-06-26T01:04:25;5.35;;;3.20;;
22883;SDS011;13386;24.786;110.488;2023-06-26T01:06:59;8.88;;;3.10;;
22883;SDS011;13386;24.786;110.488;2023-06-26T01:09:30;10.05;;;3.33;;
22883;SDS011;13386;24.786;110.488;2023-06-26T01:12:02;5.43;;;2.92;;
22883;SDS011;13386;24.786;110.488;2023-06-26T01:14:33;7.35;;;3.03;;
22883;SDS011;13386;24.786;110.488;2023-06-26T01:17:04;5.85;;;2.80;;
22883;SDS011;13386;24.786;110.488;2023-06-26T01:19:34;5.60;;;3.25;;
22883;SDS011;13386;24.786;110.488;2023-06-26T01:22:14;7.95;;;2.90;;
22883;SDS011;13386;24.786;110.488;2023-06-26T01:24:47;7.70;;;3.25;;
22883;SDS011;13386;24.786;110.488;2023-06-26T01:27:23;10.02;;;3.33;;
22883;SDS011;13386;24.786;110.488;2023-06-26T01:29:54;5.72;;;3.10;;
22883;SDS011;13386;24.786;110.488;2023-06-26T01:32:25;4.97;;;2.58;;
22883;SDS011;13386;24.786;110.488;2023-06-26T01:34:56;6.10;;;2.78;;
22883;SDS011;13386;24.786;110.488;2023-06-26T01:37:30;5.95;;;2.78;;
22883;SDS011;13386;24.786;110.488;2023-06-26T01:40:00;6.97;;;3.22;;
22883;SDS011;13386;24.786;110.488;2023-06-26T01:42:36;6.15;;;2.80;;
22883;SDS011;13386;24.786;110.488;2023-06-26T01:45:12;8.13;;;3.40;;
22883;SDS011;13386;24.786;110.488;2023-06-26T01:47:44;9.73;;;3.10;;
22883;SDS011;13386;24.786;110.488;2023-06-26T01:50:17;9.03;;;3.47;;
22883;SDS011;13386;24.786;110.488;2023-06-26T01:52:49;8.90;;;3.63;;
22883;SDS011;13386;24.786;110.488;2023-06-26T01:55:23;6.85;;;3.22;;
22883;SDS011;13386;24.786;110.488;2023-06-26T01:57:56;7.30;;;3.53;;
22883;SDS011;13386;24.786;110.488;2023-06-26T02:00:28;7.80;;;3.47;;
22883;SDS011;13386;24.786;110.488;2023-06-26T02:02:58;7.10;;;3.45;;
22883;SDS011;13386;24.786;110.488;2023-06-26T02:05:28;5.78;;;3.03;;
22883;SDS011;13386;24.786;110.488;2023-06-26T02:08:00;6.00;;;2.83;;
22883;SDS011;13386;24.786;110.488;2023-06-26T02:10:31;7.97;;;3.00;;
22883;SDS011;13386;24.786;110.488;2023-06-26T02:13:02;7.32;;;3.00;;
22883;SDS011;13386;24.786;110.488;2023-06-26T02:15:35;6.68;;;3.10;;
22883;SDS011;13386;24.786;110.488;2023-06-26T02:18:07;5.53;;;2.88;;
22883;SDS011;13386;24.786;110.488;2023-06-26T02:20:37;6.00;;;3.38;;
22883;SDS011;13386;24.786;110.488;2023-06-26T02:23:08;11.45;;;4.68;;
22883;SDS011;13386;24.786;110.488;2023-06-26T02:25:40;8.82;;;4.00;;
22883;SDS011;13386;24.786;110.488;2023-06-26T02:28:12;7.65;;;3.70;;
22883;SDS011;13386;24.786;110.488;2023-06-26T02:30:43;9.48;;;3.60;;
22883;SDS011;13386;24.786;110.488;2023-06-26T02:33:13;5.88;;;2.85;;
22883;SDS011;13386;24.786;110.488;2023-06-26T02:35:43;6.47;;;3.20;;
22883;SDS011;13386;24.786;110.488;2023-06-26T02:38:14;8.27;;;3.08;;
22883;SDS011;13386;24.786;110.488;2023-06-26T02:40:46;6.35;;;3.08;;
22883;SDS011;13386;24.786;110.488;2023-06-26T02:43:18;5.63;;;2.88;;
22883;SDS011;13386;24.786;110.488;2023-06-26T02:45:50;6.20;;;2.80;;
22883;SDS011;13386;24.786;110.488;2023-06-26T02:48:21;7.78;;;3.10;;
22883;SDS011;13386;24.786;110.488;2023-06-26T02:50:51;11.55;;;3.50;;
22883;SDS011;13386;24.786;110.488;2023-06-26T02:53:28;6.80;;;3.00;;
22883;SDS011;13386;24.786;110.488;2023-06-26T02:55:58;6.97;;;3.35;;
22883;SDS011;13386;24.786;110.488;2023-06-26T02:58:31;6.63;;;2.97;;
22883;SDS011;13386;24.786;110.488;2023-06-26T03:01:01;6.75;;;2.90;;
22883;SDS011;13386;24.786;110.488;2023-06-26T03:03:34;6.00;;;2.90;;
22883;SDS011;13386;24.786;110.488;2023-06-26T03:06:10;6.68;;;2.92;;
22883;SDS011;13386;24.786;110.488;2023-06-26T03:08:40;6.35;;;3.00;;
22883;SDS011;13386;24.786;110.488;2023-06-26T03:11:12;6.60;;;3.20;;
22883;SDS011;13386;24.786;110.488;2023-06-26T03:13:44;6.03;;;3.00;;
22883;SDS011;13386;24.786;110.488;2023-06-26T03:16:15;5.85;;;3.10;;
22883;SDS011;13386;24.786;110.488;2023-06-26T03:18:45;7.15;;;3.00;;
22883;SDS011;13386;24.786;110.488;2023-06-26T03:21:15;5.85;;;2.78;;
22883;SDS011;13386;24.786;110.488;2023-06-26T03:23:46;7.60;;;3.28;;
22883;SDS011;13386;24.786;110.488;2023-06-26T03:26:17;8.05;;;2.90;;
22883;SDS011;13386;24.786;110.488;2023-06-26T03:28:52;6.57;;;2.60;;
22883;SDS011;13386;24.786;110.488;2023-06-26T03:31:23;5.00;;;2.95;;
22883;SDS011;13386;24.786;110.488;2023-06-26T03:33:53;7.72;;;2.97;;
22883;SDS011;13386;24.786;110.488;2023-06-26T03:36:26;7.60;;;3.20;;
22883;SDS011;13386;24.786;110.488;2023-06-26T03:39:00;6.28;;;3.15;;
22883;SDS011;13386;24.786;110.488;2023-06-26T03:41:31;6.88;;;2.67;;
22883;SDS011;13386;24.786;110.488;2023-06-26T03:44:02;6.10;;;3.22;;
22883;SDS011;13386;24.786;110.488;2023-06-26T03:46:43;5.43;;;3.10;;
22883;SDS011;13386;24.786;110.488;2023-06-26T03:49:13;6.63;;;3.28;;
22883;SDS011;13386;24.786;110.488;2023-06-26T03:51:45;7.28;;;3.28;;
22883;SDS011;13386;24.786;110.488;2023-06-26T03:54:16;6.55;;;3.63;;
22883;SDS011;13386;24.786;110.488;2023-06-26T03:56:46;8.45;;;3.30;;
22883;SDS011;13386;24.786;110.488;2023-06-26T03:59:18;6.47;;;3.10;;
22883;SDS011;13386;24.786;110.488;2023-06-26T04:04:20;14.48;;;3.72;;
22883;SDS011;13386;24.786;110.488;2023-06-26T04:06:54;8.60;;;3.65;;
22883;SDS011;13386;24.786;110.488;2023-06-26T04:09:24;7.15;;;3.22;;
22883;SDS011;13386;24.786;110.488;2023-06-26T04:11:54;7.50;;;3.33;;
22883;SDS011;13386;24.786;110.488;2023-06-26T04:14:26;5.60;;;3.25;;
22883;SDS011;13386;24.786;110.488;2023-06-26T04:16:56;5.80;;;3.38;;
22883;SDS011;13386;24.786;110.488;2023-06-26T04:19:28;5.40;;;2.95;;
22883;SDS011;13386;24.786;110.488;2023-06-26T04:21:59;11.13;;;3.63;;
22883;SDS011;13386;24.786;110.488;2023-06-26T04:24:29;8.20;;;3.33;;
22883;SDS011;13386;24.786;110.488;2023-06-26T04:27:01;10.43;;;3.60;;
22883;SDS011;13386;24.786;110.488;2023-06-26T04:29:34;7.68;;;3.58;;
22883;SDS011;13386;24.786;110.488;2023-06-26T04:32:05;6.05;;;3.40;;
22883;SDS011;13386;24.786;110.488;2023-06-26T04:34:37;7.97;;;3.47;;
22883;SDS011;13386;24.786;110.488;2023-06-26T04:37:09;11.13;;;3.60;;
22883;SDS011;13386;24.786;110.488;2023-06-26T04:39:43;6.55;;;3.20;;
22883;SDS011;13386;24.786;110.488;2023-06-26T04:42:13;7.30;;;3.53;;
22883;SDS011;13386;24.786;110.488;2023-06-26T04:44:47;6.90;;;3.33;;
22883;SDS011;13386;24.786;110.488;2023-06-26T04:49:47;7.50;;;3.60;;
22883;SDS011;13386;24.786;110.488;2023-06-26T04:52:18;8.07;;;3.10;;
22883;SDS011;13386;24.786;110.488;2023-06-26T04:54:48;8.15;;;3.80;;
22883;SDS011;13386;24.786;110.488;2023-06-26T04:57:18;9.57;;;3.60;;
22883;SDS011;13386;24.786;110.488;2023-06-26T04:59:51;10.45;;;3.30;;
22883;SDS011;13386;24.786;110.488;2023-06-26T05:02:22;14.30;;;3.60;;
22883;SDS011;13386;24.786;110.488;2023-06-26T05:04:55;8.27;;;3.80;;
22883;SDS011;13386;24.786;110.488;2023-06-26T05:07:33;13.30;;;3.95;;
22883;SDS011;13386;24.786;110.488;2023-06-26T05:10:04;9.10;;;3.72;;
22883;SDS011;13386;24.786;110.488;2023-06-26T05:12:37;6.65;;;3.53;;
22883;SDS011;13386;24.786;110.488;2023-06-26T05:15:14;10.80;;;3.63;;
22883;SDS011;13386;24.786;110.488;2023-06-26T05:17:49;8.18;;;4.28;;
22883;SDS011;13386;24.786;110.488;2023-06-26T05:20:19;14.90;;;5.97;;
22883;SDS011;13386;24.786;110.488;2023-06-26T05:22:51;13.88;;;6.35;;
22883;SDS011;13386;24.786;110.488;2023-06-26T05:25:27;14.57;;;6.40;;
22883;SDS011;13386;24.786;110.488;2023-06-26T05:28:02;11.27;;;5.53;;
22883;SDS011;13386;24.786;110.488;2023-06-26T05:30:35;10.15;;;5.70;;
22883;SDS011;13386;24.786;110.488;2023-06-26T05:33:11;13.07;;;4.95;;
22883;SDS011;13386;24.786;110.488;2023-06-26T05:35:42;12.57;;;5.40;;
22883;SDS011;13386;24.786;110.488;2023-06-26T05:38:17;13.52;;;6.88;;
22883;SDS011;13386;24.786;110.488;2023-06-26T05:40:50;11.77;;;5.95;;
22883;SDS011;13386;24.786;110.488;2023-06-26T05:43:21;7.72;;;3.60;;
22883;SDS011;13386;24.786;110.488;2023-06-26T05:45:56;8.07;;;3.35;;
22883;SDS011;13386;24.786;110.488;2023-06-26T05:48:26;7.68;;;3.40;;
22883;SDS011;13386;24.786;110.488;2023-06-26T05:50:56;6.57;;;2.95;;
22883;SDS011;13386;24.786;110.488;2023-06-26T05:53:30;5.70;;;2.77;;
22883;SDS011;13386;24.786;110.488;2023-06-26T05:56:01;7.70;;;2.72;;
22883;SDS011;13386;24.786;110.488;2023-06-26T05:58:31;12.73;;;3.10;;
22883;SDS011;13386;24.786;110.488;2023-06-26T06:01:04;5.65;;;2.45;;
22883;SDS011;13386;24.786;110.488;2023-06-26T06:03:37;5.28;;;2.88;;
22883;SDS011;13386;24.786;110.488;2023-06-26T06:06:07;4.43;;;2.50;;
22883;SDS011;13386;24.786;110.488;2023-06-26T06:08:40;5.70;;;2.42;;
22883;SDS011;13386;24.786;110.488;2023-06-26T06:11:10;7.50;;;2.92;;
22883;SDS011;13386;24.786;110.488;2023-06-26T06:13:42;6.63;;;2.92;;
22883;SDS011;13386;24.786;110.488;2023-06-26T06:16:16;11.88;;;2.78;;
22883;SDS011;13386;24.786;110.488;2023-06-26T06:18:50;15.00;;;2.47;;
22883;SDS011;13386;24.786;110.488;2023-06-26T06:21:20;7.50;;;2.70;;
22883;SDS011;13386;24.786;110.488;2023-06-26T06:23:52;7.28;;;2.60;;
22883;SDS011;13386;24.786;110.488;2023-06-26T06:26:22;10.98;;;2.45;;
22883;SDS011;13386;24.786;110.488;2023-06-26T06:28:52;6.82;;;2.08;;
22883;SDS011;13386;24.786;110.488;2023-06-26T06:31:24;5.43;;;2.00;;
22883;SDS011;13386;24.786;110.488;2023-06-26T06:33:55;10.73;;;2.08;;
22883;SDS011;13386;24.786;110.488;2023-06-26T06:36:25;8.27;;;2.30;;
22883;SDS011;13386;24.786;110.488;2023-06-26T06:38:55;7.28;;;2.05;;
22883;SDS011;13386;24.786;110.488;2023-06-26T06:41:25;4.32;;;2.00;;
22883;SDS011;13386;24.786;110.488;2023-06-26T06:43:56;9.10;;;2.22;;
22883;SDS011;13386;24.786;110.488;2023-06-26T06:46:30;5.25;;;2.05;;
22883;SDS011;13386;24.786;110.488;2023-06-26T06:49:06;5.47;;;2.15;;
22883;SDS011;13386;24.786;110.488;2023-06-26T06:51:38;6.75;;;2.17;;
22883;SDS011;13386;24.786;110.488;2023-06-26T06:54:19;6.38;;;2.58;;
22883;SDS011;13386;24.786;110.488;2023-06-26T06:56:52;5.28;;;2.72;;
22883;SDS011;13386;24.786;110.488;2023-06-26T06:59:27;9.40;;;2.60;;
22883;SDS011;13386;24.786;110.488;2023-06-26T07:02:04;6.65;;;2.40;;
22883;SDS011;13386;24.786;110.488;2023-06-26T07:04:34;5.18;;;2.50;;
22883;SDS011;13386;24.786;110.488;2023-06-26T07:07:06;5.88;;;2.42;;
22883;SDS011;13386;24.786;110.488;2023-06-26T07:09:38;6.15;;;2.30;;
22883;SDS011;13386;24.786;110.488;2023-06-26T07:12:10;6.25;;;2.28;;
22883;SDS011;13386;24.786;110.488;2023-06-26T07:14:41;5.05;;;2.50;;
22883;SDS011;13386;24.786;110.488;2023-06-26T07:17:13;7.00;;;2.40;;
22883;SDS011;13386;24.786;110.488;2023-06-26T07:19:43;7.55;;;2.30;;
22883;SDS011;13386;24.786;110.488;2023-06-26T07:22:13;3.78;;;2.33;;
22883;SDS011;13386;24.786;110.488;2023-06-26T07:24:43;4.90;;;2.22;;
22883;SDS011;13386;24.786;110.488;2023-06-26T07:27:14;6.55;;;2.25;;
22883;SDS011;13386;24.786;110.488;2023-06-26T07:29:46;8.82;;;2.10;;
22883;SDS011;13386;24.786;110.488;2023-06-26T07:32:19;6.60;;;2.10;;
22883;SDS011;13386;24.786;110.488;2023-06-26T07:34:54;4.65;;;2.00;;
22883;SDS011;13386;24.786;110.488;2023-06-26T07:37:25;5.10;;;2.03;;
22883;SDS011;13386;24.786;110.488;2023-06-26T07:39:56;4.90;;;1.98;;
22883;SDS011;13386;24.786;110.488;2023-06-26T07:42:26;4.65;;;1.75;;
22883;SDS011;13386;24.786;110.488;2023-06-26T07:44:57;7.47;;;2.00;;
22883;SDS011;13386;24.786;110.488;2023-06-26T07:47:38;3.50;;;1.90;;
22883;SDS011;13386;24.786;110.488;2023-06-26T07:50:14;4.68;;;1.60;;
22883;SDS011;13386;24.786;110.488;2023-06-26T07:52:50;4.55;;;1.48;;
22883;SDS011;13386;24.786;110.488;2023-06-26T07:55:23;4.05;;;2.00;;
22883;SDS011;13386;24.786;110.488;2023-06-26T07:57:56;3.17;;;1.70;;
22883;SDS011;13386;24.786;110.488;2023-06-26T08:00:28;4.60;;;1.90;;
22883;SDS011;13386;24.786;110.488;2023-06-26T08:03:00;4.28;;;1.55;;
22883;SDS011;13386;24.786;110.488;2023-06-26T08:05:35;3.83;;;1.63;;
22883;SDS011;13386;24.786;110.488;2023-06-26T08:08:05;8.98;;;1.80;;
22883;SDS011;13386;24.786;110.488;2023-06-26T08:10:38;4.57;;;1.40;;
22883;SDS011;13386;24.786;110.488;2023-06-26T08:13:09;5.40;;;1.67;;
22883;SDS011;13386;24.786;110.488;2023-06-26T08:15:41;3.05;;;1.55;;
22883;SDS011;13386;24.786;110.488;2023-06-26T08:18:13;7.05;;;1.90;;
22883;SDS011;13386;24.786;110.488;2023-06-26T08:20:45;4.38;;;1.70;;
22883;SDS011;13386;24.786;110.488;2023-06-26T08:23:17;2.60;;;1.40;;
22883;SDS011;13386;24.786;110.488;2023-06-26T08:25:52;6.22;;;1.58;;
22883;SDS011;13386;24.786;110.488;2023-06-26T08:28:26;3.37;;;1.57;;
22883;SDS011;13386;24.786;110.488;2023-06-26T08:30:58;5.72;;;2.13;;
22883;SDS011;13386;24.786;110.488;2023-06-26T08:33:30;6.22;;;2.05;;
22883;SDS011;13386;24.786;110.488;2023-06-26T08:36:02;3.58;;;1.80;;
22883;SDS011;13386;24.786;110.488;2023-06-26T08:38:32;6.70;;;2.05;;
22883;SDS011;13386;24.786;110.488;2023-06-26T08:41:02;5.07;;;2.03;;
22883;SDS011;13386;24.786;110.488;2023-06-26T08:43:35;4.00;;;1.90;;
22883;SDS011;13386;24.786;110.488;2023-06-26T08:46:06;4.22;;;1.50;;
22883;SDS011;13386;24.786;110.488;2023-06-26T08:48:38;3.03;;;0.90;;
22883;SDS011;13386;24.786;110.488;2023-06-26T08:51:12;2.60;;;1.00;;
22883;SDS011;13386;24.786;110.488;2023-06-26T08:53:47;1.75;;;0.82;;
22883;SDS011;13386;24.786;110.488;2023-06-26T08:56:20;2.97;;;0.90;;
22883;SDS011;13386;24.786;110.488;2023-06-26T08:58:52;3.42;;;0.98;;
22883;SDS011;13386;24.786;110.488;2023-06-26T09:01:22;5.32;;;0.90;;
22883;SDS011;13386;24.786;110.488;2023-06-26T09:03:56;7.28;;;1.05;;
22883;SDS011;13386;24.786;110.488;2023-06-26T09:06:26;4.53;;;1.17;;
22883;SDS011;13386;24.786;110.488;2023-06-26T09:08:57;3.78;;;0.73;;
22883;SDS011;13386;24.786;110.488;2023-06-26T09:11:27;2.10;;;0.80;;
22883;SDS011;13386;24.786;110.488;2023-06-26T09:13:57;4.70;;;0.80;;
22883;SDS011;13386;24.786;110.488;2023-06-26T09:16:28;4.20;;;0.95;;
22883;SDS011;13386;24.786;110.488;2023-06-26T09:19:00;2.13;;;0.80;;
22883;SDS011;13386;24.786;110.488;2023-06-26T09:21:31;3.28;;;0.90;;
22883;SDS011;13386;24.786;110.488;2023-06-26T09:24:01;4.03;;;0.60;;
22883;SDS011;13386;24.786;110.488;2023-06-26T09:26:38;3.35;;;0.60;;
22883;SDS011;13386;24.786;110.488;2023-06-26T09:29:09;1.50;;;0.60;;
22883;SDS011;13386;24.786;110.488;2023-06-26T09:31:41;2.10;;;0.50;;
22883;SDS011;13386;24.786;110.488;2023-06-26T09:34:13;3.15;;;0.63;;
22883;SDS011;13386;24.786;110.488;2023-06-26T09:36:46;4.70;;;0.60;;
22883;SDS011;13386;24.786;110.488;2023-06-26T09:39:16;5.95;;;1.90;;
22883;SDS011;13386;24.786;110.488;2023-06-26T09:41:47;2.60;;;0.82;;
22883;SDS011;13386;24.786;110.488;2023-06-26T09:44:17;1.10;;;0.60;;
22883;SDS011;13386;24.786;110.488;2023-06-26T09:46:49;1.73;;;0.70;;
22883;SDS011;13386;24.786;110.488;2023-06-26T09:49:23;6.47;;;1.15;;
22883;SDS011;13386;24.786;110.488;2023-06-26T09:51:54;1.95;;;0.65;;
22883;SDS011;13386;24.786;110.488;2023-06-26T09:54:24;3.88;;;0.80;;
22883;SDS011;13386;24.786;110.488;2023-06-26T09:56:56;10.23;;;1.67;;
22883;SDS011;13386;24.786;110.488;2023-06-26T09:59:27;1.83;;;0.82;;
22883;SDS011;13386;24.786;110.488;2023-06-26T10:01:58;19.13;;;1.60;;
22883;SDS011;13386;24.786;110.488;2023-06-26T10:04:31;2.72;;;0.80;;
22883;SDS011;13386;24.786;110.488;2023-06-26T10:07:05;8.65;;;1.30;;
22883;SDS011;13386;24.786;110.488;2023-06-26T10:09:40;4.97;;;0.95;;
22883;SDS011;13386;24.786;110.488;2023-06-26T10:12:11;7.57;;;0.80;;
22883;SDS011;13386;24.786;110.488;2023-06-26T10:14:42;64.95;;;7.85;;
22883;SDS011;13386;24.786;110.488;2023-06-26T10:17:16;7.18;;;1.38;;
22883;SDS011;13386;24.786;110.488;2023-06-26T10:19:50;14.00;;;2.40;;
22883;SDS011;13386;24.786;110.488;2023-06-26T10:22:24;13.50;;;2.17;;
22883;SDS011;13386;24.786;110.488;2023-06-26T10:24:56;15.88;;;2.22;;
22883;SDS011;13386;24.786;110.488;2023-06-26T10:27:28;22.08;;;2.70;;
22883;SDS011;13386;24.786;110.488;2023-06-26T10:30:03;20.87;;;4.47;;
22883;SDS011;13386;24.786;110.488;2023-06-26T10:32:34;9.07;;;2.03;;
22883;SDS011;13386;24.786;110.488;2023-06-26T10:35:07;52.38;;;11.52;;
22883;SDS011;13386;24.786;110.488;2023-06-26T10:37:41;144.57;;;15.30;;
22883;SDS011;13386;24.786;110.488;2023-06-26T10:40:12;15.25;;;3.10;;
22883;SDS011;13386;24.786;110.488;2023-06-26T10:42:42;24.73;;;5.28;;
22883;SDS011;13386;24.786;110.488;2023-06-26T10:45:14;25.98;;;4.18;;
22883;SDS011;13386;24.786;110.488;2023-06-26T10:47:47;21.17;;;3.30;;
22883;SDS011;13386;24.786;110.488;2023-06-26T10:50:20;16.20;;;2.30;;
22883;SDS011;13386;24.786;110.488;2023-06-26T10:55:42;14.88;;;2.60;;
22883;SDS011;13386;24.786;110.488;2023-06-26T10:58:29;22.48;;;3.58;;
22883;SDS011;13386;24.786;110.488;2023-06-26T11:01:19;12.00;;;2.33;;
22883;SDS011;13386;24.786;110.488;2023-06-26T11:04:12;8.80;;;2.00;;
22883;SDS011;13386;24.786;110.488;2023-06-26T11:06:47;14.05;;;2.35;;
22883;SDS011;13386;24.786;110.488;2023-06-26T11:09:23;16.77;;;3.10;;
22883;SDS011;13386;24.786;110.488;2023-06-26T11:11:59;12.23;;;3.33;;
22883;SDS011;13386;24.786;110.488;2023-06-26T11:14:37;9.82;;;2.42;;
22883;SDS011;13386;24.786;110.488;2023-06-26T11:17:10;11.07;;;2.35;;
22883;SDS011;13386;24.786;110.488;2023-06-26T11:19:46;10.68;;;2.28;;
22883;SDS011;13386;24.786;110.488;2023-06-26T11:22:19;11.45;;;2.30;;
22883;SDS011;13386;24.786;110.488;2023-06-26T11:24:50;10.38;;;2.00;;
22883;SDS011;13386;24.786;110.488;2023-06-26T11:27:22;9.88;;;2.00;;
22883;SDS011;13386;24.786;110.488;2023-06-26T11:29:55;9.02;;;2.15;;
22883;SDS011;13386;24.786;110.488;2023-06-26T11:32:26;10.38;;;2.08;;
22883;SDS011;13386;24.786;110.488;2023-06-26T11:34:57;10.98;;;2.38;;
22883;SDS011;13386;24.786;110.488;2023-06-26T11:37:29;8.55;;;2.10;;
22883;SDS011;13386;24.786;110.488;2023-06-26T11:40:16;10.25;;;2.63;;
22883;SDS011;13386;24.786;110.488;2023-06-26T11:42:48;8.73;;;1.90;;
22883;SDS011;13386;24.786;110.488;2023-06-26T11:45:20;6.00;;;2.03;;
22883;SDS011;13386;24.786;110.488;2023-06-26T11:47:50;7.03;;;1.73;;
22883;SDS011;13386;24.786;110.488;2023-06-26T11:50:22;10.63;;;2.05;;
22883;SDS011;13386;24.786;110.488;2023-06-26T11:52:56;6.70;;;2.00;;
22883;SDS011;13386;24.786;110.488;2023-06-26T11:55:40;6.28;;;1.92;;
22883;SDS011;13386;24.786;110.488;2023-06-26T11:58:10;8.27;;;2.10;;
22883;SDS011;13386;24.786;110.488;2023-06-26T12:00:41;14.15;;;2.40;;
22883;SDS011;13386;24.786;110.488;2023-06-26T12:03:14;10.55;;;1.60;;
22883;SDS011;13386;24.786;110.488;2023-06-26T12:05:47;9.88;;;2.03;;
22883;SDS011;13386;24.786;110.488;2023-06-26T12:08:29;7.70;;;1.70;;
22883;SDS011;13386;24.786;110.488;2023-06-26T12:11:01;7.30;;;1.70;;
22883;SDS011;13386;24.786;110.488;2023-06-26T12:13:35;10.75;;;1.90;;
22883;SDS011;13386;24.786;110.488;2023-06-26T12:16:07;7.65;;;1.98;;
22883;SDS011;13386;24.786;110.488;2023-06-26T12:18:42;10.98;;;2.35;;
22883;SDS011;13386;24.786;110.488;2023-06-26T12:21:44;11.90;;;2.88;;
22883;SDS011;13386;24.786;110.488;2023-06-26T12:24:20;17.30;;;2.80;;
22883;SDS011;13386;24.786;110.488;2023-06-26T12:26:53;17.02;;;3.15;;
22883;SDS011;13386;24.786;110.488;2023-06-26T12:29:29;14.40;;;2.90;;
22883;SDS011;13386;24.786;110.488;2023-06-26T12:32:02;8.23;;;2.40;;
22883;SDS011;13386;24.786;110.488;2023-06-26T12:34:34;10.30;;;2.22;;
22883;SDS011;13386;24.786;110.488;2023-06-26T12:37:05;10.02;;;2.13;;
22883;SDS011;13386;24.786;110.488;2023-06-26T12:39:50;13.55;;;2.10;;
22883;SDS011;13386;24.786;110.488;2023-06-26T12:42:21;8.65;;;2.30;;
22883;SDS011;13386;24.786;110.488;2023-06-26T12:44:53;18.17;;;2.50;;
22883;SDS011;13386;24.786;110.488;2023-06-26T12:47:25;7.32;;;2.50;;
22883;SDS011;13386;24.786;110.488;2023-06-26T12:49:56;10.32;;;2.72;;
22883;SDS011;13386;24.786;110.488;2023-06-26T12:52:28;12.63;;;3.05;;
22883;SDS011;13386;24.786;110.488;2023-06-26T12:55:00;17.05;;;2.90;;
22883;SDS011;13386;24.786;110.488;2023-06-26T12:57:30;19.05;;;3.13;;
22883;SDS011;13386;24.786;110.488;2023-06-26T13:00:00;14.43;;;2.53;;
22883;SDS011;13386;24.786;110.488;2023-06-26T13:02:31;7.65;;;2.53;;
22883;SDS011;13386;24.786;110.488;2023-06-26T13:05:02;15.38;;;4.78;;
22883;SDS011;13386;24.786;110.488;2023-06-26T13:07:33;16.17;;;3.63;;
22883;SDS011;13386;24.786;110.488;2023-06-26T13:10:11;12.82;;;2.80;;
22883;SDS011;13386;24.786;110.488;2023-06-26T13:12:41;10.73;;;3.00;;
22883;SDS011;13386;24.786;110.488;2023-06-26T13:15:11;9.52;;;2.70;;
22883;SDS011;13386;24.786;110.488;2023-06-26T13:17:47;11.43;;;2.47;;
22883;SDS011;13386;24.786;110.488;2023-06-26T13:20:18;12.32;;;2.30;;
22883;SDS011;13386;24.786;110.488;2023-06-26T13:22:48;7.75;;;2.22;;
22883;SDS011;13386;24.786;110.488;2023-06-26T13:25:22;16.45;;;2.63;;
22883;SDS011;13386;24.786;110.488;2023-06-26T13:27:52;15.73;;;2.70;;
22883;SDS011;13386;24.786;110.488;2023-06-26T13:30:24;14.10;;;2.60;;
22883;SDS011;13386;24.786;110.488;2023-06-26T13:32:56;9.35;;;2.40;;
22883;SDS011;13386;24.786;110.488;2023-06-26T13:35:28;10.88;;;2.45;;
22883;SDS011;13386;24.786;110.488;2023-06-26T13:37:59;8.05;;;2.17;;
22883;SDS011;13386;24.786;110.488;2023-06-26T13:40:36;16.23;;;3.45;;
22883;SDS011;13386;24.786;110.488;2023-06-26T13:43:10;7.80;;;2.30;;
22883;SDS011;13386;24.786;110.488;2023-06-26T13:45:43;7.85;;;1.95;;
22883;SDS011;13386;24.786;110.488;2023-06-26T13:48:13;9.07;;;2.20;;
22883;SDS011;13386;24.786;110.488;2023-06-26T13:50:43;13.32;;;2.20;;
22883;SDS011;13386;24.786;110.488;2023-06-26T13:53:14;23.08;;;6.47;;
22883;SDS011;13386;24.786;110.488;2023-06-26T13:55:48;6.75;;;1.95;;
22883;SDS011;13386;24.786;110.488;2023-06-26T13:58:18;12.07;;;1.90;;
22883;SDS011;13386;24.786;110.488;2023-06-26T14:00:54;9.52;;;3.05;;
22883;SDS011;13386;24.786;110.488;2023-06-26T14:03:26;10.43;;;4.15;;
22883;SDS011;13386;24.786;110.488;2023-06-26T14:05:59;17.58;;;3.00;;
22883;SDS011;13386;24.786;110.488;2023-06-26T14:08:29;9.63;;;2.47;;
22883;SDS011;13386;24.786;110.488;2023-06-26T14:11:03;6.57;;;2.17;;
22883;SDS011;13386;24.786;110.488;2023-06-26T14:13:40;5.35;;;2.20;;
22883;SDS011;13386;24.786;110.488;2023-06-26T14:16:13;13.32;;;2.30;;
22883;SDS011;13386;24.786;110.488;2023-06-26T14:18:45;10.55;;;2.30;;
22883;SDS011;13386;24.786;110.488;2023-06-26T14:21:19;17.17;;;2.63;;
22883;SDS011;13386;24.786;110.488;2023-06-26T14:23:50;7.13;;;2.78;;
22883;SDS011;13386;24.786;110.488;2023-06-26T14:26:23;11.63;;;2.85;;
22883;SDS011;13386;24.786;110.488;2023-06-26T14:29:00;9.15;;;2.78;;
22883;SDS011;13386;24.786;110.488;2023-06-26T14:31:34;13.90;;;2.90;;
22883;SDS011;13386;24.786;110.488;2023-06-26T14:34:05;12.00;;;2.58;;
22883;SDS011;13386;24.786;110.488;2023-06-26T14:36:36;13.48;;;3.00;;
22883;SDS011;13386;24.786;110.488;2023-06-26T14:39:14;16.45;;;4.68;;
22883;SDS011;13386;24.786;110.488;2023-06-26T14:41:50;11.00;;;3.08;;
22883;SDS011;13386;24.786;110.488;2023-06-26T14:44:20;16.98;;;2.65;;
22883;SDS011;13386;24.786;110.488;2023-06-26T14:46:54;13.77;;;3.35;;
22883;SDS011;13386;24.786;110.488;2023-06-26T14:49:24;15.98;;;2.97;;
22883;SDS011;13386;24.786;110.488;2023-06-26T14:51:56;14.77;;;3.70;;
22883;SDS011;13386;24.786;110.488;2023-06-26T14:54:27;14.02;;;3.40;;
22883;SDS011;13386;24.786;110.488;2023-06-26T14:57:01;16.55;;;4.60;;